sensor_id;sensor_type;location;lat;lon;timestamp;P1;durP1;ratioP1;P2;durP2;ratioP2
67995;SDS011;54772;53.544;49.324;2023-08-30T00:00:38;3.20;;;2.05;;
67995;SDS011;54772;53.544;49.324;2023-08-30T00:03:25;3.75;;;2.30;;
67995;SDS011;54772;53.544;49.324;2023-08-30T00:06:11;3.60;;;2.40;;
67995;SDS011;54772;53.544;49.324;2023-08-30T00:08:58;4.53;;;2.60;;
67995;SDS011;54772;53.544;49.324;2023-08-30T00:11:44;3.70;;;2.45;;
67995;SDS011;54772;53.544;49.324;2023-08-30T00:14:31;3.17;;;2.10;;
67995;SDS011;54772;53.544;49.324;2023-08-30T00:17:17;5.05;;;2.45;;
67995;SDS011;54772;53.544;49.324;2023-08-30T00:20:05;3.10;;;2.08;;
67995;SDS011;54772;53.544;49.324;2023-08-30T00:22:52;4.65;;;2.15;;
67995;SDS011;54772;53.544;49.324;2023-08-30T00:28:24;3.50;;;2.30;;
67995;SDS011;54772;53.544;49.324;2023-08-30T00:31:12;4.53;;;2.15;;
67995;SDS011;54772;53.544;49.324;2023-08-30T00:34:01;3.75;;;2.17;;
67995;SDS011;54772;53.544;49.324;2023-08-30T00:36:47;3.03;;;2.15;;
67995;SDS011;54772;53.544;49.324;2023-08-30T00:42:23;4.32;;;2.62;;
67995;SDS011;54772;53.544;49.324;2023-08-30T00:45:10;5.53;;;2.58;;
67995;SDS011;54772;53.544;49.324;2023-08-30T00:47:57;4.80;;;2.35;;
67995;SDS011;54772;53.544;49.324;2023-08-30T00:50:43;3.90;;;2.17;;
67995;SDS011;54772;53.544;49.324;2023-08-30T00:56:16;3.35;;;2.20;;
67995;SDS011;54772;53.544;49.324;2023-08-30T00:59:04;4.35;;;2.35;;
67995;SDS011;54772;53.544;49.324;2023-08-30T01:01:50;3.22;;;2.00;;
67995;SDS011;54772;53.544;49.324;2023-08-30T01:04:39;2.92;;;1.98;;
67995;SDS011;54772;53.544;49.324;2023-08-30T01:07:25;3.72;;;2.30;;
67995;SDS011;54772;53.544;49.324;2023-08-30T01:10:13;2.90;;;2.15;;
67995;SDS011;54772;53.544;49.324;2023-08-30T01:13:01;2.42;;;2.00;;
67995;SDS011;54772;53.544;49.324;2023-08-30T01:15:51;2.72;;;1.87;;
67995;SDS011;54772;53.544;49.324;2023-08-30T01:18:40;4.62;;;2.65;;
67995;SDS011;54772;53.544;49.324;2023-08-30T01:24:32;4.20;;;2.80;;
67995;SDS011;54772;53.544;49.324;2023-08-30T01:27:23;4.70;;;2.53;;
67995;SDS011;54772;53.544;49.324;2023-08-30T01:30:10;4.95;;;2.85;;
67995;SDS011;54772;53.544;49.324;2023-08-30T01:32:57;4.68;;;2.58;;
67995;SDS011;54772;53.544;49.324;2023-08-30T01:35:48;5.22;;;2.37;;
67995;SDS011;54772;53.544;49.324;2023-08-30T01:38:35;3.25;;;2.20;;
67995;SDS011;54772;53.544;49.324;2023-08-30T01:41:23;3.85;;;2.55;;
67995;SDS011;54772;53.544;49.324;2023-08-30T01:44:11;3.10;;;1.92;;
67995;SDS011;54772;53.544;49.324;2023-08-30T01:47:01;4.00;;;2.67;;
67995;SDS011;54772;53.544;49.324;2023-08-30T01:49:49;3.37;;;2.25;;
67995;SDS011;54772;53.544;49.324;2023-08-30T01:52:36;3.17;;;2.30;;
67995;SDS011;54772;53.544;49.324;2023-08-30T01:55:25;3.08;;;2.17;;
67995;SDS011;54772;53.544;49.324;2023-08-30T01:58:13;3.58;;;2.28;;
67995;SDS011;54772;53.544;49.324;2023-08-30T02:01:00;3.40;;;2.20;;
67995;SDS011;54772;53.544;49.324;2023-08-30T02:03:47;4.18;;;2.40;;
67995;SDS011;54772;53.544;49.324;2023-08-30T02:09:58;5.82;;;2.20;;
67995;SDS011;54772;53.544;49.324;2023-08-30T02:12:48;4.35;;;2.20;;
67995;SDS011;54772;53.544;49.324;2023-08-30T02:15:35;3.30;;;2.37;;
67995;SDS011;54772;53.544;49.324;2023-08-30T02:21:13;3.42;;;2.12;;
67995;SDS011;54772;53.544;49.324;2023-08-30T02:24:00;5.32;;;2.45;;
67995;SDS011;54772;53.544;49.324;2023-08-30T02:26:49;4.40;;;2.67;;
67995;SDS011;54772;53.544;49.324;2023-08-30T02:29:36;6.00;;;2.83;;
67995;SDS011;54772;53.544;49.324;2023-08-30T02:32:24;5.47;;;2.65;;
67995;SDS011;54772;53.544;49.324;2023-08-30T02:35:10;5.07;;;2.97;;
67995;SDS011;54772;53.544;49.324;2023-08-30T02:37:57;6.30;;;2.87;;
67995;SDS011;54772;53.544;49.324;2023-08-30T02:40:44;6.45;;;3.08;;
67995;SDS011;54772;53.544;49.324;2023-08-30T02:43:31;8.68;;;3.85;;
67995;SDS011;54772;53.544;49.324;2023-08-30T02:46:17;6.80;;;3.75;;
67995;SDS011;54772;53.544;49.324;2023-08-30T02:49:05;8.35;;;4.10;;
67995;SDS011;54772;53.544;49.324;2023-08-30T02:54:39;8.13;;;3.95;;
67995;SDS011;54772;53.544;49.324;2023-08-30T02:57:27;8.55;;;3.60;;
67995;SDS011;54772;53.544;49.324;2023-08-30T03:03:03;3.50;;;2.15;;
67995;SDS011;54772;53.544;49.324;2023-08-30T03:05:50;3.20;;;2.30;;
67995;SDS011;54772;53.544;49.324;2023-08-30T03:08:36;3.75;;;2.42;;
67995;SDS011;54772;53.544;49.324;2023-08-30T03:11:25;4.15;;;2.62;;
67995;SDS011;54772;53.544;49.324;2023-08-30T03:14:12;4.68;;;2.55;;
67995;SDS011;54772;53.544;49.324;2023-08-30T03:17:03;4.45;;;2.80;;
67995;SDS011;54772;53.544;49.324;2023-08-30T03:19:52;5.07;;;2.95;;
67995;SDS011;54772;53.544;49.324;2023-08-30T03:22:41;5.43;;;2.87;;
67995;SDS011;54772;53.544;49.324;2023-08-30T03:25:28;4.68;;;2.80;;
67995;SDS011;54772;53.544;49.324;2023-08-30T03:28:18;5.97;;;2.62;;
67995;SDS011;54772;53.544;49.324;2023-08-30T03:31:11;8.82;;;3.35;;
67995;SDS011;54772;53.544;49.324;2023-08-30T03:33:59;9.38;;;3.40;;
67995;SDS011;54772;53.544;49.324;2023-08-30T03:36:45;8.25;;;3.30;;
67995;SDS011;54772;53.544;49.324;2023-08-30T03:39:38;7.70;;;3.00;;
67995;SDS011;54772;53.544;49.324;2023-08-30T03:42:25;6.60;;;3.15;;
67995;SDS011;54772;53.544;49.324;2023-08-30T03:47:58;6.18;;;2.85;;
67995;SDS011;54772;53.544;49.324;2023-08-30T03:50:45;5.60;;;2.55;;
67995;SDS011;54772;53.544;49.324;2023-08-30T03:53:34;4.32;;;2.50;;
67995;SDS011;54772;53.544;49.324;2023-08-30T03:56:21;8.60;;;3.40;;
67995;SDS011;54772;53.544;49.324;2023-08-30T03:59:08;3.90;;;2.80;;
67995;SDS011;54772;53.544;49.324;2023-08-30T04:01:57;4.12;;;2.53;;
67995;SDS011;54772;53.544;49.324;2023-08-30T04:04:46;3.70;;;2.45;;
67995;SDS011;54772;53.544;49.324;2023-08-30T04:07:33;2.60;;;1.52;;
67995;SDS011;54772;53.544;49.324;2023-08-30T04:10:22;3.67;;;2.00;;
67995;SDS011;54772;53.544;49.324;2023-08-30T04:13:09;3.30;;;1.98;;
67995;SDS011;54772;53.544;49.324;2023-08-30T04:15:55;3.10;;;1.87;;
67995;SDS011;54772;53.544;49.324;2023-08-30T04:18:43;3.78;;;2.20;;
67995;SDS011;54772;53.544;49.324;2023-08-30T04:21:30;4.65;;;2.55;;
67995;SDS011;54772;53.544;49.324;2023-08-30T04:24:21;4.28;;;2.50;;
67995;SDS011;54772;53.544;49.324;2023-08-30T04:27:08;4.37;;;2.40;;
67995;SDS011;54772;53.544;49.324;2023-08-30T04:29:58;1.77;;;1.50;;
67995;SDS011;54772;53.544;49.324;2023-08-30T04:35:33;3.62;;;2.15;;
67995;SDS011;54772;53.544;49.324;2023-08-30T04:38:22;4.78;;;2.30;;
67995;SDS011;54772;53.544;49.324;2023-08-30T04:41:09;3.90;;;2.22;;
67995;SDS011;54772;53.544;49.324;2023-08-30T04:43:56;4.78;;;2.20;;
67995;SDS011;54772;53.544;49.324;2023-08-30T04:46:43;4.68;;;2.03;;
67995;SDS011;54772;53.544;49.324;2023-08-30T04:49:30;4.55;;;2.37;;
67995;SDS011;54772;53.544;49.324;2023-08-30T04:52:19;3.83;;;2.28;;
67995;SDS011;54772;53.544;49.324;2023-08-30T04:55:08;4.37;;;2.00;;
67995;SDS011;54772;53.544;49.324;2023-08-30T04:57:56;3.50;;;1.52;;
67995;SDS011;54772;53.544;49.324;2023-08-30T05:00:44;3.95;;;2.20;;
67995;SDS011;54772;53.544;49.324;2023-08-30T05:03:30;3.67;;;2.30;;
67995;SDS011;54772;53.544;49.324;2023-08-30T05:06:17;3.03;;;1.85;;
67995;SDS011;54772;53.544;49.324;2023-08-30T05:09:04;3.78;;;2.42;;
67995;SDS011;54772;53.544;49.324;2023-08-30T05:11:52;4.32;;;2.30;;
67995;SDS011;54772;53.544;49.324;2023-08-30T05:14:43;4.30;;;2.40;;
67995;SDS011;54772;53.544;49.324;2023-08-30T05:23:04;3.65;;;2.10;;
67995;SDS011;54772;53.544;49.324;2023-08-30T05:25:50;4.90;;;2.72;;
67995;SDS011;54772;53.544;49.324;2023-08-30T05:28:37;4.47;;;2.53;;
67995;SDS011;54772;53.544;49.324;2023-08-30T05:31:24;3.87;;;2.00;;
67995;SDS011;54772;53.544;49.324;2023-08-30T05:34:11;4.20;;;2.50;;
67995;SDS011;54772;53.544;49.324;2023-08-30T05:36:59;3.92;;;2.30;;
67995;SDS011;54772;53.544;49.324;2023-08-30T05:39:46;3.85;;;2.17;;
67995;SDS011;54772;53.544;49.324;2023-08-30T05:42:32;5.43;;;2.75;;
67995;SDS011;54772;53.544;49.324;2023-08-30T05:45:19;5.18;;;2.10;;
67995;SDS011;54772;53.544;49.324;2023-08-30T05:48:05;3.72;;;2.22;;
67995;SDS011;54772;53.544;49.324;2023-08-30T05:50:52;4.75;;;2.60;;
67995;SDS011;54772;53.544;49.324;2023-08-30T05:53:39;4.40;;;2.70;;
67995;SDS011;54772;53.544;49.324;2023-08-30T05:56:26;7.57;;;2.87;;
67995;SDS011;54772;53.544;49.324;2023-08-30T05:59:13;4.03;;;2.33;;
67995;SDS011;54772;53.544;49.324;2023-08-30T06:01:59;3.22;;;2.12;;
67995;SDS011;54772;53.544;49.324;2023-08-30T06:04:46;4.22;;;2.10;;
67995;SDS011;54772;53.544;49.324;2023-08-30T06:07:33;3.47;;;2.10;;
67995;SDS011;54772;53.544;49.324;2023-08-30T06:10:20;2.17;;;1.45;;
67995;SDS011;54772;53.544;49.324;2023-08-30T06:13:06;5.47;;;2.10;;
67995;SDS011;54772;53.544;49.324;2023-08-30T06:15:52;3.55;;;2.22;;
67995;SDS011;54772;53.544;49.324;2023-08-30T06:18:39;3.40;;;2.33;;
67995;SDS011;54772;53.544;49.324;2023-08-30T06:21:26;5.22;;;2.50;;
67995;SDS011;54772;53.544;49.324;2023-08-30T06:24:13;4.72;;;2.12;;
67995;SDS011;54772;53.544;49.324;2023-08-30T06:27:02;6.95;;;2.80;;
67995;SDS011;54772;53.544;49.324;2023-08-30T06:29:49;4.00;;;2.62;;
67995;SDS011;54772;53.544;49.324;2023-08-30T06:32:36;3.90;;;2.42;;
67995;SDS011;54772;53.544;49.324;2023-08-30T06:35:22;2.53;;;2.03;;
67995;SDS011;54772;53.544;49.324;2023-08-30T06:38:09;6.50;;;2.35;;
67995;SDS011;54772;53.544;49.324;2023-08-30T06:40:57;3.85;;;2.25;;
67995;SDS011;54772;53.544;49.324;2023-08-30T06:43:44;4.70;;;2.00;;
67995;SDS011;54772;53.544;49.324;2023-08-30T06:46:30;4.90;;;2.60;;
67995;SDS011;54772;53.544;49.324;2023-08-30T06:49:17;2.87;;;2.00;;
67995;SDS011;54772;53.544;49.324;2023-08-30T06:52:03;4.93;;;2.40;;
67995;SDS011;54772;53.544;49.324;2023-08-30T06:54:51;3.33;;;2.05;;
67995;SDS011;54772;53.544;49.324;2023-08-30T06:57:37;1.87;;;1.52;;
67995;SDS011;54772;53.544;49.324;2023-08-30T07:00:26;4.78;;;2.17;;
67995;SDS011;54772;53.544;49.324;2023-08-30T07:03:12;4.25;;;2.40;;
67995;SDS011;54772;53.544;49.324;2023-08-30T07:05:59;3.58;;;2.00;;
67995;SDS011;54772;53.544;49.324;2023-08-30T07:11:33;7.35;;;2.90;;
67995;SDS011;54772;53.544;49.324;2023-08-30T07:14:20;5.25;;;2.25;;
67995;SDS011;54772;53.544;49.324;2023-08-30T07:17:07;3.75;;;2.00;;
67995;SDS011;54772;53.544;49.324;2023-08-30T07:19:53;3.33;;;1.90;;
67995;SDS011;54772;53.544;49.324;2023-08-30T07:22:40;3.17;;;2.35;;
67995;SDS011;54772;53.544;49.324;2023-08-30T07:25:26;3.55;;;2.20;;
67995;SDS011;54772;53.544;49.324;2023-08-30T07:31:03;3.60;;;2.30;;
67995;SDS011;54772;53.544;49.324;2023-08-30T07:33:50;4.65;;;2.53;;
67995;SDS011;54772;53.544;49.324;2023-08-30T07:36:37;2.28;;;1.45;;
67995;SDS011;54772;53.544;49.324;2023-08-30T07:39:23;4.15;;;1.90;;
67995;SDS011;54772;53.544;49.324;2023-08-30T07:42:10;2.08;;;1.52;;
67995;SDS011;54772;53.544;49.324;2023-08-30T07:44:58;3.03;;;1.92;;
67995;SDS011;54772;53.544;49.324;2023-08-30T07:47:45;3.25;;;2.20;;
67995;SDS011;54772;53.544;49.324;2023-08-30T07:50:32;2.83;;;1.62;;
67995;SDS011;54772;53.544;49.324;2023-08-30T07:53:18;2.95;;;1.70;;
67995;SDS011;54772;53.544;49.324;2023-08-30T07:58:55;3.97;;;2.08;;
67995;SDS011;54772;53.544;49.324;2023-08-30T08:01:42;4.00;;;2.20;;
67995;SDS011;54772;53.544;49.324;2023-08-30T08:04:31;3.20;;;2.22;;
67995;SDS011;54772;53.544;49.324;2023-08-30T08:07:18;3.90;;;2.33;;
67995;SDS011;54772;53.544;49.324;2023-08-30T08:10:05;6.00;;;2.78;;
67995;SDS011;54772;53.544;49.324;2023-08-30T08:12:52;5.07;;;2.33;;
67995;SDS011;54772;53.544;49.324;2023-08-30T08:15:38;5.18;;;2.33;;
67995;SDS011;54772;53.544;49.324;2023-08-30T08:18:25;4.12;;;2.30;;
67995;SDS011;54772;53.544;49.324;2023-08-30T08:21:12;3.75;;;2.40;;
67995;SDS011;54772;53.544;49.324;2023-08-30T08:23:58;3.97;;;1.67;;
67995;SDS011;54772;53.544;49.324;2023-08-30T08:26:43;4.07;;;2.33;;
67995;SDS011;54772;53.544;49.324;2023-08-30T08:29:30;4.25;;;2.25;;
67995;SDS011;54772;53.544;49.324;2023-08-30T08:32:16;4.45;;;2.15;;
67995;SDS011;54772;53.544;49.324;2023-08-30T08:35:05;3.83;;;2.40;;
67995;SDS011;54772;53.544;49.324;2023-08-30T08:40:39;4.32;;;2.30;;
67995;SDS011;54772;53.544;49.324;2023-08-30T08:43:25;3.05;;;1.80;;
67995;SDS011;54772;53.544;49.324;2023-08-30T08:46:12;3.80;;;2.22;;
67995;SDS011;54772;53.544;49.324;2023-08-30T08:49:01;2.50;;;1.52;;
67995;SDS011;54772;53.544;49.324;2023-08-30T08:51:51;3.45;;;2.05;;
67995;SDS011;54772;53.544;49.324;2023-08-30T08:54:38;5.18;;;1.80;;
67995;SDS011;54772;53.544;49.324;2023-08-30T08:57:26;2.70;;;1.87;;
67995;SDS011;54772;53.544;49.324;2023-08-30T09:00:14;2.72;;;1.87;;
67995;SDS011;54772;53.544;49.324;2023-08-30T09:03:05;2.37;;;1.58;;
67995;SDS011;54772;53.544;49.324;2023-08-30T09:05:51;3.45;;;1.48;;
67995;SDS011;54772;53.544;49.324;2023-08-30T09:08:38;6.03;;;2.47;;
67995;SDS011;54772;53.544;49.324;2023-08-30T09:11:25;2.97;;;1.65;;
67995;SDS011;54772;53.544;49.324;2023-08-30T09:14:13;5.37;;;1.80;;
67995;SDS011;54772;53.544;49.324;2023-08-30T09:17:00;2.03;;;1.42;;
67995;SDS011;54772;53.544;49.324;2023-08-30T09:19:47;4.50;;;1.52;;
67995;SDS011;54772;53.544;49.324;2023-08-30T09:25:25;4.73;;;2.00;;
67995;SDS011;54772;53.544;49.324;2023-08-30T09:28:12;2.90;;;1.87;;
67995;SDS011;54772;53.544;49.324;2023-08-30T09:30:58;3.87;;;1.62;;
67995;SDS011;54772;53.544;49.324;2023-08-30T09:36:35;3.83;;;1.70;;
67995;SDS011;54772;53.544;49.324;2023-08-30T09:39:21;2.03;;;1.62;;
67995;SDS011;54772;53.544;49.324;2023-08-30T09:42:08;2.62;;;1.67;;
67995;SDS011;54772;53.544;49.324;2023-08-30T09:44:55;2.50;;;1.65;;
67995;SDS011;54772;53.544;49.324;2023-08-30T09:47:46;2.30;;;1.58;;
67995;SDS011;54772;53.544;49.324;2023-08-30T09:50:35;1.83;;;1.35;;
67995;SDS011;54772;53.544;49.324;2023-08-30T09:53:24;4.82;;;2.00;;
67995;SDS011;54772;53.544;49.324;2023-08-30T09:56:13;5.75;;;2.20;;
67995;SDS011;54772;53.544;49.324;2023-08-30T09:59:00;2.80;;;1.60;;
67995;SDS011;54772;53.544;49.324;2023-08-30T10:01:48;2.35;;;1.60;;
67995;SDS011;54772;53.544;49.324;2023-08-30T10:04:35;3.47;;;2.00;;
67995;SDS011;54772;53.544;49.324;2023-08-30T10:07:26;3.00;;;1.87;;
67995;SDS011;54772;53.544;49.324;2023-08-30T10:13:00;2.55;;;1.67;;
67995;SDS011;54772;53.544;49.324;2023-08-30T10:15:47;2.55;;;1.55;;
67995;SDS011;54772;53.544;49.324;2023-08-30T10:18:34;3.47;;;1.92;;
67995;SDS011;54772;53.544;49.324;2023-08-30T10:21:22;4.32;;;1.65;;
67995;SDS011;54772;53.544;49.324;2023-08-30T10:24:08;2.78;;;1.77;;
67995;SDS011;54772;53.544;49.324;2023-08-30T10:26:57;3.08;;;1.60;;
67995;SDS011;54772;53.544;49.324;2023-08-30T10:29:44;3.25;;;1.85;;
67995;SDS011;54772;53.544;49.324;2023-08-30T10:32:33;3.62;;;1.95;;
67995;SDS011;54772;53.544;49.324;2023-08-30T10:35:28;3.00;;;1.73;;
67995;SDS011;54772;53.544;49.324;2023-08-30T10:38:24;3.90;;;1.70;;
67995;SDS011;54772;53.544;49.324;2023-08-30T10:41:12;3.75;;;2.03;;
67995;SDS011;54772;53.544;49.324;2023-08-30T10:43:58;2.95;;;1.60;;
67995;SDS011;54772;53.544;49.324;2023-08-30T10:46:52;3.00;;;1.62;;
67995;SDS011;54772;53.544;49.324;2023-08-30T10:49:39;3.12;;;1.95;;
67995;SDS011;54772;53.544;49.324;2023-08-30T10:52:30;4.97;;;2.55;;
67995;SDS011;54772;53.544;49.324;2023-08-30T10:55:17;3.40;;;2.08;;
67995;SDS011;54772;53.544;49.324;2023-08-30T10:58:07;3.17;;;1.60;;
67995;SDS011;54772;53.544;49.324;2023-08-30T11:01:02;2.30;;;1.37;;
67995;SDS011;54772;53.544;49.324;2023-08-30T11:03:49;4.07;;;1.75;;
67995;SDS011;54772;53.544;49.324;2023-08-30T11:06:38;4.28;;;2.20;;
67995;SDS011;54772;53.544;49.324;2023-08-30T11:09:25;4.28;;;2.03;;
67995;SDS011;54772;53.544;49.324;2023-08-30T11:12:15;5.43;;;2.33;;
67995;SDS011;54772;53.544;49.324;2023-08-30T11:15:07;4.12;;;1.73;;
67995;SDS011;54772;53.544;49.324;2023-08-30T11:18:02;4.07;;;1.90;;
67995;SDS011;54772;53.544;49.324;2023-08-30T11:20:52;3.97;;;1.70;;
67995;SDS011;54772;53.544;49.324;2023-08-30T11:23:44;3.37;;;1.62;;
67995;SDS011;54772;53.544;49.324;2023-08-30T11:26:31;2.70;;;1.90;;
67995;SDS011;54772;53.544;49.324;2023-08-30T11:32:04;3.05;;;1.70;;
67995;SDS011;54772;53.544;49.324;2023-08-30T11:34:57;4.62;;;2.08;;
67995;SDS011;54772;53.544;49.324;2023-08-30T11:37:43;3.08;;;2.00;;
67995;SDS011;54772;53.544;49.324;2023-08-30T11:40:32;3.25;;;1.83;;
67995;SDS011;54772;53.544;49.324;2023-08-30T11:43:18;4.75;;;1.83;;
67995;SDS011;54772;53.544;49.324;2023-08-30T11:46:05;2.40;;;1.58;;
67995;SDS011;54772;53.544;49.324;2023-08-30T11:48:55;3.28;;;1.98;;
67995;SDS011;54772;53.544;49.324;2023-08-30T11:51:42;5.05;;;2.70;;
67995;SDS011;54772;53.544;49.324;2023-08-30T11:54:28;2.30;;;1.77;;
67995;SDS011;54772;53.544;49.324;2023-08-30T11:57:16;2.33;;;1.48;;
67995;SDS011;54772;53.544;49.324;2023-08-30T12:00:09;2.42;;;1.62;;
67995;SDS011;54772;53.544;49.324;2023-08-30T12:02:57;3.92;;;2.20;;
67995;SDS011;54772;53.544;49.324;2023-08-30T12:05:49;3.08;;;2.00;;
67995;SDS011;54772;53.544;49.324;2023-08-30T12:08:36;5.72;;;2.30;;
67995;SDS011;54772;53.544;49.324;2023-08-30T12:11:23;2.85;;;1.95;;
67995;SDS011;54772;53.544;49.324;2023-08-30T12:16:59;4.37;;;2.12;;
67995;SDS011;54772;53.544;49.324;2023-08-30T12:19:45;3.30;;;1.87;;
67995;SDS011;54772;53.544;49.324;2023-08-30T12:22:39;3.70;;;2.10;;
67995;SDS011;54772;53.544;49.324;2023-08-30T12:25:26;4.00;;;2.08;;
67995;SDS011;54772;53.544;49.324;2023-08-30T12:28:14;4.72;;;2.50;;
67995;SDS011;54772;53.544;49.324;2023-08-30T12:31:01;4.70;;;2.50;;
67995;SDS011;54772;53.544;49.324;2023-08-30T12:33:51;4.15;;;2.60;;
67995;SDS011;54772;53.544;49.324;2023-08-30T12:36:39;7.50;;;3.00;;
67995;SDS011;54772;53.544;49.324;2023-08-30T12:39:25;3.87;;;2.17;;
67995;SDS011;54772;53.544;49.324;2023-08-30T12:42:14;6.95;;;2.60;;
67995;SDS011;54772;53.544;49.324;2023-08-30T12:45:05;2.97;;;2.10;;
67995;SDS011;54772;53.544;49.324;2023-08-30T12:47:52;3.78;;;2.42;;
67995;SDS011;54772;53.544;49.324;2023-08-30T12:50:38;5.25;;;2.40;;
67995;SDS011;54772;53.544;49.324;2023-08-30T12:53:25;5.28;;;2.50;;
67995;SDS011;54772;53.544;49.324;2023-08-30T12:56:11;4.32;;;2.70;;
67995;SDS011;54772;53.544;49.324;2023-08-30T13:01:44;3.85;;;2.40;;
67995;SDS011;54772;53.544;49.324;2023-08-30T13:04:31;3.50;;;2.28;;
67995;SDS011;54772;53.544;49.324;2023-08-30T13:07:18;4.03;;;2.45;;
67995;SDS011;54772;53.544;49.324;2023-08-30T13:10:05;3.42;;;1.85;;
67995;SDS011;54772;53.544;49.324;2023-08-30T13:12:51;7.15;;;2.53;;
67995;SDS011;54772;53.544;49.324;2023-08-30T13:15:39;4.57;;;2.53;;
67995;SDS011;54772;53.544;49.324;2023-08-30T13:18:26;7.30;;;2.92;;
67995;SDS011;54772;53.544;49.324;2023-08-30T13:23:59;5.47;;;2.42;;
67995;SDS011;54772;53.544;49.324;2023-08-30T13:26:45;4.68;;;2.83;;
67995;SDS011;54772;53.544;49.324;2023-08-30T13:29:31;4.78;;;3.00;;
67995;SDS011;54772;53.544;49.324;2023-08-30T13:32:18;5.22;;;3.08;;
67995;SDS011;54772;53.544;49.324;2023-08-30T13:35:04;6.78;;;3.25;;
67995;SDS011;54772;53.544;49.324;2023-08-30T13:37:51;5.87;;;2.65;;
67995;SDS011;54772;53.544;49.324;2023-08-30T13:40:38;4.93;;;2.80;;
67995;SDS011;54772;53.544;49.324;2023-08-30T13:43:24;5.70;;;3.08;;
67995;SDS011;54772;53.544;49.324;2023-08-30T13:46:09;7.22;;;3.50;;
67995;SDS011;54772;53.544;49.324;2023-08-30T13:48:56;7.78;;;2.75;;
67995;SDS011;54772;53.544;49.324;2023-08-30T13:51:45;7.20;;;2.90;;
67995;SDS011;54772;53.544;49.324;2023-08-30T13:54:32;4.45;;;2.33;;
67995;SDS011;54772;53.544;49.324;2023-08-30T13:57:18;4.87;;;2.10;;
67995;SDS011;54772;53.544;49.324;2023-08-30T14:00:09;4.87;;;2.40;;
67995;SDS011;54772;53.544;49.324;2023-08-30T14:02:58;6.03;;;2.90;;
67995;SDS011;54772;53.544;49.324;2023-08-30T14:05:44;3.90;;;2.33;;
67995;SDS011;54772;53.544;49.324;2023-08-30T14:08:31;5.30;;;2.35;;
67995;SDS011;54772;53.544;49.324;2023-08-30T14:11:17;5.75;;;2.92;;
67995;SDS011;54772;53.544;49.324;2023-08-30T14:14:04;6.28;;;2.95;;
67995;SDS011;54772;53.544;49.324;2023-08-30T14:16:50;5.53;;;2.50;;
67995;SDS011;54772;53.544;49.324;2023-08-30T14:19:37;4.00;;;2.47;;
67995;SDS011;54772;53.544;49.324;2023-08-30T14:22:24;5.05;;;2.75;;
67995;SDS011;54772;53.544;49.324;2023-08-30T14:25:10;5.07;;;2.80;;
67995;SDS011;54772;53.544;49.324;2023-08-30T14:27:57;3.87;;;1.80;;
67995;SDS011;54772;53.544;49.324;2023-08-30T14:30:47;3.85;;;1.60;;
67995;SDS011;54772;53.544;49.324;2023-08-30T14:33:33;3.62;;;2.17;;
67995;SDS011;54772;53.544;49.324;2023-08-30T14:36:25;4.22;;;2.25;;
67995;SDS011;54772;53.544;49.324;2023-08-30T14:39:12;4.85;;;2.08;;
67995;SDS011;54772;53.544;49.324;2023-08-30T14:41:58;4.65;;;2.50;;
67995;SDS011;54772;53.544;49.324;2023-08-30T14:44:48;5.28;;;2.25;;
67995;SDS011;54772;53.544;49.324;2023-08-30T14:47:38;4.95;;;2.40;;
67995;SDS011;54772;53.544;49.324;2023-08-30T14:50:24;2.92;;;1.92;;
67995;SDS011;54772;53.544;49.324;2023-08-30T14:53:11;3.65;;;2.00;;
67995;SDS011;54772;53.544;49.324;2023-08-30T14:55:57;3.50;;;2.10;;
67995;SDS011;54772;53.544;49.324;2023-08-30T15:01:34;4.85;;;2.22;;
67995;SDS011;54772;53.544;49.324;2023-08-30T15:04:20;4.55;;;2.15;;
67995;SDS011;54772;53.544;49.324;2023-08-30T15:07:07;3.53;;;2.17;;
67995;SDS011;54772;53.544;49.324;2023-08-30T15:09:53;4.53;;;2.47;;
67995;SDS011;54772;53.544;49.324;2023-08-30T15:12:40;5.07;;;2.47;;
67995;SDS011;54772;53.544;49.324;2023-08-30T15:15:29;4.72;;;2.10;;
67995;SDS011;54772;53.544;49.324;2023-08-30T15:18:16;3.67;;;2.25;;
67995;SDS011;54772;53.544;49.324;2023-08-30T15:21:02;6.22;;;2.50;;
67995;SDS011;54772;53.544;49.324;2023-08-30T15:23:49;5.50;;;3.00;;
67995;SDS011;54772;53.544;49.324;2023-08-30T15:26:38;6.70;;;3.22;;
67995;SDS011;54772;53.544;49.324;2023-08-30T15:32:11;7.12;;;3.20;;
67995;SDS011;54772;53.544;49.324;2023-08-30T15:34:57;6.93;;;3.87;;
67995;SDS011;54772;53.544;49.324;2023-08-30T15:37:44;8.18;;;4.43;;
67995;SDS011;54772;53.544;49.324;2023-08-30T15:40:30;10.52;;;4.72;;
67995;SDS011;54772;53.544;49.324;2023-08-30T15:43:18;12.65;;;5.65;;
67995;SDS011;54772;53.544;49.324;2023-08-30T15:46:05;9.57;;;5.05;;
67995;SDS011;54772;53.544;49.324;2023-08-30T15:48:55;10.43;;;5.60;;
67995;SDS011;54772;53.544;49.324;2023-08-30T15:51:41;12.40;;;5.00;;
67995;SDS011;54772;53.544;49.324;2023-08-30T15:54:28;10.48;;;5.32;;
67995;SDS011;54772;53.544;49.324;2023-08-30T15:57:14;11.35;;;5.45;;
67995;SDS011;54772;53.544;49.324;2023-08-30T16:02:51;14.30;;;6.28;;
67995;SDS011;54772;53.544;49.324;2023-08-30T16:05:40;12.07;;;5.93;;
67995;SDS011;54772;53.544;49.324;2023-08-30T16:08:27;12.73;;;6.28;;
67995;SDS011;54772;53.544;49.324;2023-08-30T16:14:00;10.95;;;5.70;;
67995;SDS011;54772;53.544;49.324;2023-08-30T16:16:47;10.80;;;5.03;;
67995;SDS011;54772;53.544;49.324;2023-08-30T16:19:33;10.03;;;5.17;;
67995;SDS011;54772;53.544;49.324;2023-08-30T16:22:21;10.93;;;5.18;;
67995;SDS011;54772;53.544;49.324;2023-08-30T16:27:54;10.77;;;6.22;;
67995;SDS011;54772;53.544;49.324;2023-08-30T16:33:27;12.55;;;6.35;;
67995;SDS011;54772;53.544;49.324;2023-08-30T16:36:13;9.52;;;5.32;;
67995;SDS011;54772;53.544;49.324;2023-08-30T16:39:02;12.27;;;5.35;;
67995;SDS011;54772;53.544;49.324;2023-08-30T16:44:35;10.85;;;5.15;;
67995;SDS011;54772;53.544;49.324;2023-08-30T16:47:21;15.38;;;5.85;;
67995;SDS011;54772;53.544;49.324;2023-08-30T16:50:08;10.50;;;6.00;;
67995;SDS011;54772;53.544;49.324;2023-08-30T16:52:56;13.32;;;5.93;;
67995;SDS011;54772;53.544;49.324;2023-08-30T16:58:29;12.52;;;5.22;;
67995;SDS011;54772;53.544;49.324;2023-08-30T17:01:17;13.05;;;4.72;;
67995;SDS011;54772;53.544;49.324;2023-08-30T17:04:06;9.73;;;4.28;;
67995;SDS011;54772;53.544;49.324;2023-08-30T17:06:55;9.77;;;4.93;;
67995;SDS011;54772;53.544;49.324;2023-08-30T17:09:44;10.93;;;4.62;;
67995;SDS011;54772;53.544;49.324;2023-08-30T17:12:30;10.38;;;4.82;;
67995;SDS011;54772;53.544;49.324;2023-08-30T17:15:19;12.37;;;4.80;;
67995;SDS011;54772;53.544;49.324;2023-08-30T17:18:06;12.70;;;5.18;;
67995;SDS011;54772;53.544;49.324;2023-08-30T17:20:52;13.60;;;5.05;;
67995;SDS011;54772;53.544;49.324;2023-08-30T17:23:39;10.27;;;4.45;;
67995;SDS011;54772;53.544;49.324;2023-08-30T17:26:25;10.00;;;4.37;;
67995;SDS011;54772;53.544;49.324;2023-08-30T17:29:12;10.73;;;4.53;;
67995;SDS011;54772;53.544;49.324;2023-08-30T17:31:59;9.07;;;4.40;;
67995;SDS011;54772;53.544;49.324;2023-08-30T17:34:46;8.95;;;4.30;;
67995;SDS011;54772;53.544;49.324;2023-08-30T17:37:33;10.20;;;5.07;;
67995;SDS011;54772;53.544;49.324;2023-08-30T17:40:22;9.88;;;4.60;;
67995;SDS011;54772;53.544;49.324;2023-08-30T17:43:10;10.25;;;5.32;;
67995;SDS011;54772;53.544;49.324;2023-08-30T17:45:58;9.10;;;5.37;;
67995;SDS011;54772;53.544;49.324;2023-08-30T17:48:46;8.02;;;4.75;;
67995;SDS011;54772;53.544;49.324;2023-08-30T17:54:19;7.78;;;4.20;;
67995;SDS011;54772;53.544;49.324;2023-08-30T17:57:06;9.82;;;4.68;;
67995;SDS011;54772;53.544;49.324;2023-08-30T17:59:56;8.25;;;4.15;;
67995;SDS011;54772;53.544;49.324;2023-08-30T18:05:34;6.53;;;3.70;;